Time;durP1;ratioP1;P1;durP2;ratioP2;P2;SDS_P1;SDS_P2;PMS_P1;PMS_P2;Temp;Humidity;BMP_temperature;BMP_pressure;BME280_temperature;BME280_humidity;BME280_pressure;Samples;Min_cycle;Max_cycle;Signal;HPM_P1;HPM_P2
2024/04/05 00:01:28;;;;;;;;;;;;;;;10.82;99.66;96311.09;108564;1273;124975;-88
2024/04/05 00:03:55;;;;;;;;;;;;;;;10.83;99.68;96308.62;108648;1275;22523;-87
2024/04/05 00:06:22;;;;;;;;;;;;;;;10.83;99.23;96309.61;108546;1275;125157;-88
2024/04/05 00:08:49;;;;;;;;;;;;;;;10.83;98.95;96315.05;108588;1280;24245;-88
2024/04/05 00:11:16;;;;;;;;;;;;;;;10.81;98.57;96312.80;108682;1280;23247;-87
2024/04/05 00:13:42;;;;;;;;;;;;;;;10.80;98.09;96324.51;108482;1278;124979;-88
2024/04/05 00:16:09;;;;;;;;;;;;;;;10.80;97.83;96315.23;108672;1275;22530;-88
2024/04/05 00:18:35;;;;;;;;;;;;;;;10.78;97.80;96309.70;108575;1275;124901;-87
2024/04/05 00:21:05;;;;;;;;;;;;;;;10.76;97.59;96306.48;108693;1279;22510;-88
2024/04/05 00:23:31;;;;;;;;;;;;;;;10.76;97.56;96307.20;108659;1278;22534;-87
2024/04/05 00:26:00;;;;;;;;;;;;;;;10.74;97.37;96319.86;108580;1272;125153;-88
2024/04/05 00:28:29;;;;;;;;;;;;;;;10.74;96.86;96323.41;108575;1275;22496;-87
2024/04/05 00:30:56;;;;;;;;;;;;;;;10.75;96.86;96325.02;108622;1273;124806;-87
2024/04/05 00:33:22;;;;;;;;;;;;;;;10.72;96.99;96333.98;108541;1274;22514;-87
2024/04/05 00:35:52;;;;;;;;;;;;;;;10.67;96.50;96335.70;108674;1280;22618;-87
2024/04/05 00:38:19;;;;;;;;;;;;;;;10.63;96.25;96332.31;108699;1276;22525;-87
2024/04/05 00:40:45;;;;;;;;;;;;;;;10.63;95.98;96333.52;108642;1279;22511;-88
2024/04/05 00:43:12;;;;;;;;;;;;;;;10.63;96.28;96334.91;108553;1280;125110;-87
2024/04/05 00:45:39;;;;;;;;;;;;;;;10.61;95.94;96337.29;108669;1273;22571;-88
2024/04/05 00:48:05;;;;;;;;;;;;;;;10.58;95.72;96341.54;108611;1279;124867;-88
2024/04/05 00:50:32;;;;;;;;;;;;;;;10.57;95.46;96348.10;108721;1275;22533;-88
2024/04/05 00:52:58;;;;;;;;;;;;;;;10.56;95.59;96349.80;108733;1280;22579;-87
2024/04/05 00:55:26;;;;;;;;;;;;;;;10.53;95.35;96347.70;108597;1273;124936;-87
2024/04/05 00:57:53;;;;;;;;;;;;;;;10.51;95.15;96353.84;108658;1274;22525;-87
2024/04/05 01:00:23;;;;;;;;;;;;;;;10.50;94.99;96362.09;108541;1280;124874;-88
2024/04/05 01:02:50;;;;;;;;;;;;;;;10.48;94.71;96356.29;108658;1280;22507;-88
2024/04/05 01:05:16;;;;;;;;;;;;;;;10.46;94.71;96359.81;108677;1280;22504;-87
2024/04/05 01:07:43;;;;;;;;;;;;;;;10.43;94.60;96360.19;108570;1280;124752;-87
2024/04/05 01:10:10;;;;;;;;;;;;;;;10.41;94.28;96368.73;108659;1278;22592;-87
2024/04/05 01:12:36;;;;;;;;;;;;;;;10.41;94.59;96368.54;108554;1277;124882;-88
2024/04/05 01:15:03;;;;;;;;;;;;;;;10.39;94.47;96370.46;108717;1270;22536;-87
2024/04/05 01:17:30;;;;;;;;;;;;;;;10.38;94.26;96372.54;108675;1275;22500;-87
2024/04/05 01:19:56;;;;;;;;;;;;;;;10.37;94.18;96384.23;108527;1280;124832;-87
2024/04/05 01:22:23;;;;;;;;;;;;;;;10.36;94.02;96390.09;108649;1280;22527;-88
2024/04/05 01:24:50;;;;;;;;;;;;;;;10.37;93.97;96393.97;108567;1280;124850;-88
2024/04/05 01:27:16;;;;;;;;;;;;;;;10.35;94.02;96390.69;108720;1280;23151;-87
2024/04/05 01:29:42;;;;;;;;;;;;;;;10.32;93.75;96386.29;108655;1275;22540;-87
2024/04/05 01:32:09;;;;;;;;;;;;;;;10.29;93.96;96391.41;108606;1275;124713;-86
2024/04/05 01:34:35;;;;;;;;;;;;;;;10.28;93.93;96394.74;108717;1262;22494;-88
2024/04/05 01:37:02;;;;;;;;;;;;;;;10.26;93.77;96394.41;108608;1274;124776;-88
2024/04/05 01:39:29;;;;;;;;;;;;;;;10.23;93.39;96393.98;108640;1273;22547;-88
2024/04/05 01:41:55;;;;;;;;;;;;;;;10.24;93.50;96398.73;108437;1277;124870;-87
2024/04/05 01:44:22;;;;;;;;;;;;;;;10.24;93.32;96391.69;108688;1280;23080;-88
2024/04/05 01:46:48;;;;;;;;;;;;;;;10.23;93.49;96394.34;108681;1273;22503;-88
2024/04/05 01:49:14;;;;;;;;;;;;;;;10.21;93.31;96403.91;108653;1276;124709;-87
2024/04/05 01:51:41;;;;;;;;;;;;;;;10.20;93.29;96408.90;108684;1276;22521;-88
2024/04/05 01:54:07;;;;;;;;;;;;;;;10.19;93.41;96410.76;108563;1275;124872;-88
2024/04/05 01:56:33;;;;;;;;;;;;;;;10.20;93.59;96411.98;108650;1280;22981;-87
2024/04/05 01:59:00;;;;;;;;;;;;;;;10.21;93.71;96412.96;108671;1273;22549;-88
2024/04/05 02:01:26;;;;;;;;;;;;;;;10.21;93.45;96411.24;108552;1280;124716;-88
2024/04/05 02:03:52;;;;;;;;;;;;;;;10.22;93.37;96416.15;108674;1280;25339;-88
2024/04/05 02:06:19;;;;;;;;;;;;;;;10.23;93.22;96421.71;108582;1280;124937;-88
2024/04/05 02:08:46;;;;;;;;;;;;;;;10.22;93.11;96423.38;108684;1280;22505;-87
2024/04/05 02:11:12;;;;;;;;;;;;;;;10.22;92.94;96428.05;108565;1274;22546;-87
2024/04/05 02:13:38;;;;;;;;;;;;;;;10.21;93.01;96432.11;108602;1280;125288;-87
2024/04/05 02:16:05;;;;;;;;;;;;;;;10.21;93.24;96433.38;108613;1280;25283;-88
2024/04/05 02:18:31;;;;;;;;;;;;;;;10.20;92.74;96436.10;108626;1275;125269;-88
2024/04/05 02:20:58;;;;;;;;;;;;;;;10.18;92.81;96433.36;108612;1275;23213;-87
2024/04/05 02:23:24;;;;;;;;;;;;;;;10.18;92.93;96432.96;108568;1275;22572;-88
2024/04/05 02:25:50;;;;;;;;;;;;;;;10.19;92.76;96435.69;108513;1278;124738;-87
2024/04/05 02:28:17;;;;;;;;;;;;;;;10.19;93.10;96440.45;108722;1278;25305;-88
2024/04/05 02:30:43;;;;;;;;;;;;;;;10.19;93.12;96438.25;108606;1275;124964;-89
2024/04/05 02:33:12;;;;;;;;;;;;;;;10.18;93.26;96445.98;108627;1273;22579;-88
2024/04/05 02:35:38;;;;;;;;;;;;;;;10.16;93.22;96451.88;108731;1262;22519;-88
2024/04/05 02:38:05;;;;;;;;;;;;;;;10.17;92.89;96453.75;108625;1272;124858;-87
2024/04/05 02:40:31;;;;;;;;;;;;;;;10.17;93.20;96450.77;108699;1278;24335;-87
2024/04/05 02:42:58;;;;;;;;;;;;;;;10.17;93.00;96450.15;108572;1275;124986;-87
2024/04/05 02:45:24;;;;;;;;;;;;;;;10.13;93.07;96450.00;108699;1276;22584;-87
2024/04/05 02:47:51;;;;;;;;;;;;;;;10.12;92.88;96446.02;108623;1275;22565;-87
2024/04/05 02:50:17;;;;;;;;;;;;;;;10.10;93.18;96449.36;108619;1276;124579;-86
2024/04/05 02:52:43;;;;;;;;;;;;;;;10.07;93.11;96452.48;108608;1280;22568;-87
2024/04/05 02:55:10;;;;;;;;;;;;;;;10.03;93.27;96457.05;108620;1275;126298;-87
2024/04/05 02:57:37;;;;;;;;;;;;;;;10.01;93.45;96458.75;108647;1280;22550;-87
2024/04/05 03:00:03;;;;;;;;;;;;;;;10.00;93.38;96464.20;108531;1273;124924;-87
2024/04/05 03:02:29;;;;;;;;;;;;;;;10.00;93.46;96472.91;108711;1273;24272;-87
2024/04/05 03:04:56;;;;;;;;;;;;;;;9.98;93.31;96473.83;108715;1280;22500;-87
2024/04/05 03:07:22;;;;;;;;;;;;;;;9.97;93.29;96475.82;108543;1275;124610;-87
2024/04/05 03:09:50;;;;;;;;;;;;;;;9.96;93.50;96477.80;108710;1280;22511;-87
2024/04/05 03:12:16;;;;;;;;;;;;;;;9.95;93.68;96478.34;108622;1272;125219;-87
2024/04/05 03:14:43;;;;;;;;;;;;;;;9.93;93.30;96475.02;108697;1280;22509;-88
2024/04/05 03:17:09;;;;;;;;;;;;;;;9.93;93.33;96475.02;108533;1280;22993;-88
2024/04/05 03:19:36;;;;;;;;;;;;;;;9.93;93.22;96479.39;108591;1274;124643;-87
2024/04/05 03:22:03;;;;;;;;;;;;;;;9.90;93.05;96478.13;108556;1280;22558;-87
2024/04/05 03:24:29;;;;;;;;;;;;;;;9.87;93.09;96483.70;108576;1280;124798;-88
2024/04/05 03:26:56;;;;;;;;;;;;;;;9.83;93.19;96483.48;108674;1274;22544;-87
2024/04/05 03:29:22;;;;;;;;;;;;;;;9.79;92.98;96490.02;108693;1275;22546;-87
2024/04/05 03:31:49;;;;;;;;;;;;;;;9.76;93.32;96487.86;108568;1275;125069;-87
2024/04/05 03:34:15;;;;;;;;;;;;;;;9.74;93.29;96488.15;108693;1280;22667;-87
2024/04/05 03:36:42;;;;;;;;;;;;;;;9.72;93.47;96485.25;108569;1280;124603;-87
2024/04/05 03:39:10;;;;;;;;;;;;;;;9.69;93.43;96485.52;108595;1280;22491;-87
2024/04/05 03:41:36;;;;;;;;;;;;;;;9.66;93.53;96486.95;108749;1280;24278;-86
2024/04/05 03:44:03;;;;;;;;;;;;;;;9.64;93.50;96491.12;108595;1272;124649;-87
2024/04/05 03:46:30;;;;;;;;;;;;;;;9.61;93.76;96493.88;108613;1275;22540;-87
2024/04/05 03:48:56;;;;;;;;;;;;;;;9.58;93.85;96497.34;108565;1274;124571;-87
2024/04/05 03:51:23;;;;;;;;;;;;;;;9.53;94.32;96495.08;108644;1280;22511;-87
2024/04/05 03:53:49;;;;;;;;;;;;;;;9.49;94.16;96497.84;108690;1275;24282;-86
2024/04/05 03:56:15;;;;;;;;;;;;;;;9.47;94.31;96503.08;109765;1275;124458;-87
2024/04/05 03:58:42;;;;;;;;;;;;;;;9.48;94.12;96504.20;108756;1272;22559;-86
2024/04/05 04:01:09;;;;;;;;;;;;;;;9.48;93.97;96505.37;108593;1273;124555;-87
2024/04/05 04:03:35;;;;;;;;;;;;;;;9.48;93.80;96509.15;108726;1280;22534;-87
2024/04/05 04:06:02;;;;;;;;;;;;;;;9.47;93.84;96508.38;108435;1279;124872;-87
2024/04/05 04:08:29;;;;;;;;;;;;;;;9.47;93.82;96506.92;108730;1279;24044;-86
2024/04/05 04:10:56;;;;;;;;;;;;;;;9.43;94.03;96509.24;108744;1274;22637;-87
2024/04/05 04:13:25;;;;;;;;;;;;;;;9.42;93.84;96510.73;108643;1272;123591;-87
2024/04/05 04:15:51;;;;;;;;;;;;;;;9.42;93.92;96509.86;108671;1275;22602;-86
2024/04/05 04:18:18;;;;;;;;;;;;;;;9.43;93.89;96513.77;108629;1278;125167;-87
2024/04/05 04:20:45;;;;;;;;;;;;;;;9.41;94.13;96512.91;108630;1272;22509;-87
2024/04/05 04:23:13;;;;;;;;;;;;;;;9.41;94.17;96509.67;108646;1276;22504;-87
2024/04/05 04:25:39;;;;;;;;;;;;;;;9.39;94.12;96512.96;108597;1275;124565;-87
2024/04/05 04:28:07;;;;;;;;;;;;;;;9.38;94.07;96518.13;108689;1272;24228;-86
2024/04/05 04:30:34;;;;;;;;;;;;;;;9.37;94.08;96522.14;108651;1280;125356;-87
2024/04/05 04:33:00;;;;;;;;;;;;;;;9.38;94.10;96521.10;108755;1273;22528;-86
2024/04/05 04:35:26;;;;;;;;;;;;;;;9.37;94.05;96527.43;108711;1278;23327;-87
2024/04/05 04:37:53;;;;;;;;;;;;;;;9.33;94.25;96531.77;108625;1279;124587;-87
2024/04/05 04:40:19;;;;;;;;;;;;;;;9.32;94.34;96534.53;108727;1272;25364;-86
2024/04/05 04:42:46;;;;;;;;;;;;;;;9.26;94.65;96541.69;108623;1280;124585;-87
2024/04/05 04:45:12;;;;;;;;;;;;;;;9.21;94.56;96542.45;108706;1279;25329;-87
2024/04/05 04:47:39;;;;;;;;;;;;;;;9.20;95.21;96547.42;108691;1273;25176;-87
2024/04/05 04:50:05;;;;;;;;;;;;;;;9.20;95.01;96545.50;108647;1276;124455;-87
2024/04/05 04:52:32;;;;;;;;;;;;;;;9.20;95.07;96547.73;108700;1273;22548;-87
2024/04/05 04:54:58;;;;;;;;;;;;;;;9.20;94.85;96551.08;108610;1279;124402;-87
2024/04/05 04:57:24;;;;;;;;;;;;;;;9.20;95.04;96550.01;108650;1272;22507;-87
2024/04/05 04:59:51;;;;;;;;;;;;;;;9.19;95.21;96551.83;108655;1279;22537;-87
2024/04/05 05:02:17;;;;;;;;;;;;;;;9.19;95.08;96549.59;108615;1280;124245;-86
2024/04/05 05:04:44;;;;;;;;;;;;;;;9.18;95.45;96552.13;108752;1280;22509;-87
2024/04/05 05:07:11;;;;;;;;;;;;;;;9.18;95.59;96552.65;108848;1274;124358;-87
2024/04/05 05:09:39;;;;;;;;;;;;;;;9.20;95.95;96559.14;108723;1272;22539;-87
2024/04/05 05:12:05;;;;;;;;;;;;;;;9.18;95.40;96558.19;108641;1279;124645;-86
2024/04/05 05:14:31;;;;;;;;;;;;;;;9.17;95.31;96559.17;108705;1272;26450;-87
2024/04/05 05:16:58;;;;;;;;;;;;;;;9.18;95.22;96563.50;108770;1280;22496;-87
2024/04/05 05:19:24;;;;;;;;;;;;;;;9.21;95.13;96568.41;108632;1280;124481;-87
2024/04/05 05:21:51;;;;;;;;;;;;;;;9.23;94.95;96573.39;108591;1280;23431;-87
2024/04/05 05:24:17;;;;;;;;;;;;;;;9.25;94.93;96579.02;108646;1272;124632;-86
2024/04/05 05:26:44;;;;;;;;;;;;;;;9.28;95.18;96581.45;108705;1279;22507;-87
2024/04/05 05:29:10;;;;;;;;;;;;;;;9.33;94.86;96588.01;108590;1280;22510;-87
2024/04/05 05:31:36;;;;;;;;;;;;;;;9.38;94.63;96591.65;108578;1276;124647;-87
2024/04/05 05:34:03;;;;;;;;;;;;;;;9.42;94.71;96595.96;108595;1274;22564;-87
2024/04/05 05:36:29;;;;;;;;;;;;;;;9.45;94.67;96596.06;108610;1280;125386;-86
2024/04/05 05:38:55;;;;;;;;;;;;;;;9.47;95.14;96600.60;108677;1275;22552;-87
2024/04/05 05:41:22;;;;;;;;;;;;;;;9.50;94.82;96599.57;108715;1270;22570;-87
2024/04/05 05:43:48;;;;;;;;;;;;;;;9.56;94.66;96596.36;108590;1269;124715;-87
2024/04/05 05:46:15;;;;;;;;;;;;;;;9.60;94.70;96596.05;108671;1280;23363;-87
2024/04/05 05:48:41;;;;;;;;;;;;;;;9.63;94.71;96602.66;108486;1280;125065;-87
2024/04/05 05:51:07;;;;;;;;;;;;;;;9.68;94.37;96597.63;108712;1275;22618;-87
2024/04/05 05:53:34;;;;;;;;;;;;;;;9.76;94.19;96601.54;108756;1276;24709;-87
2024/04/05 05:56:02;;;;;;;;;;;;;;;9.83;94.27;96602.96;108517;1280;124812;-87
2024/04/05 05:58:29;;;;;;;;;;;;;;;9.88;94.25;96606.95;108664;1280;22533;-87
2024/04/05 06:00:55;;;;;;;;;;;;;;;9.94;94.36;96606.83;108600;1280;124702;-87
2024/04/05 06:03:22;;;;;;;;;;;;;;;10.01;94.34;96602.73;108706;1277;22542;-87
2024/04/05 06:05:51;;;;;;;;;;;;;;;10.10;93.93;96602.89;108548;1275;22518;-87
2024/04/05 06:08:18;;;;;;;;;;;;;;;10.17;94.02;96608.44;108510;1268;124956;-87
2024/04/05 06:10:55;;;;;;;;;;;;;;;10.25;94.26;96613.65;108701;1275;22512;-87
2024/04/05 06:13:22;;;;;;;;;;;;;;;10.32;94.04;96616.23;108608;1280;124868;-87
2024/04/05 06:15:54;;;;;;;;;;;;;;;10.40;94.00;96622.14;108621;1280;23802;-86
2024/04/05 06:18:21;;;;;;;;;;;;;;;10.49;93.26;96620.80;108517;1276;125331;-87
2024/04/05 06:20:55;;;;;;;;;;;;;;;10.57;94.12;96621.96;108642;1275;22535;-88
2024/04/05 06:23:22;;;;;;;;;;;;;;;10.62;93.40;96622.36;108651;1279;22545;-88
2024/04/05 06:25:59;;;;;;;;;;;;;;;10.64;93.43;96619.09;108482;1276;124858;-87
2024/04/05 06:28:25;;;;;;;;;;;;;;;10.67;93.62;96622.85;108705;1280;24217;-87
2024/04/05 06:30:51;;;;;;;;;;;;;;;10.72;93.97;96619.42;108525;1273;124712;-88
2024/04/05 06:33:18;;;;;;;;;;;;;;;10.76;93.72;96623.40;108722;1275;25266;-87
2024/04/05 06:35:45;;;;;;;;;;;;;;;10.80;93.54;96622.41;108681;1280;24240;-87
2024/04/05 06:38:11;;;;;;;;;;;;;;;10.87;93.25;96623.94;108544;1274;124726;-86
2024/04/05 06:40:39;;;;;;;;;;;;;;;10.93;92.62;96625.85;108644;1280;22510;-87
2024/04/05 06:43:06;;;;;;;;;;;;;;;11.00;92.75;96622.94;108556;1280;125285;-87
2024/04/05 06:45:32;;;;;;;;;;;;;;;11.05;92.30;96627.88;108602;1280;23149;-87
2024/04/05 06:48:01;;;;;;;;;;;;;;;11.11;92.16;96635.08;108605;1276;125065;-86
2024/04/05 06:50:31;;;;;;;;;;;;;;;11.20;92.47;96637.23;108594;1280;22503;-87
2024/04/05 06:52:58;;;;;;;;;;;;;;;11.27;91.85;96637.21;108704;1280;22514;-87
2024/04/05 06:55:24;;;;;;;;;;;;;;;11.31;91.65;96639.41;108637;1280;124733;-87
2024/04/05 06:57:51;;;;;;;;;;;;;;;11.34;91.19;96640.09;108692;1275;22503;-86
2024/04/05 07:00:17;;;;;;;;;;;;;;;11.38;91.47;96641.28;108600;1275;124938;-87
2024/04/05 07:02:44;;;;;;;;;;;;;;;11.38;90.54;96647.52;108716;1280;22508;-87
2024/04/05 07:05:10;;;;;;;;;;;;;;;11.39;90.97;96648.41;108671;1274;22548;-86
2024/04/05 07:07:37;;;;;;;;;;;;;;;11.41;90.93;96652.58;108593;1277;125537;-87
2024/04/05 07:10:04;;;;;;;;;;;;;;;11.42;90.94;96651.23;108528;1278;24258;-87
2024/04/05 07:12:31;;;;;;;;;;;;;;;11.42;90.59;96651.35;108576;1278;124892;-87
2024/04/05 07:14:57;;;;;;;;;;;;;;;11.44;90.35;96657.41;108619;1271;22533;-87
2024/04/05 07:17:23;;;;;;;;;;;;;;;11.45;90.37;96659.23;108571;1280;22528;-87
2024/04/05 07:19:50;;;;;;;;;;;;;;;11.46;90.52;96657.63;108612;1279;125039;-87
2024/04/05 07:22:17;;;;;;;;;;;;;;;11.45;89.70;96661.90;108568;1280;23420;-86
2024/04/05 07:24:43;;;;;;;;;;;;;;;11.46;89.68;96665.27;108596;1280;124870;-87
2024/04/05 07:27:10;;;;;;;;;;;;;;;11.49;89.89;96660.90;108604;1278;22496;-87
2024/04/05 07:29:38;;;;;;;;;;;;;;;11.54;89.65;96659.58;108542;1278;22512;-87
2024/04/05 07:32:05;;;;;;;;;;;;;;;11.60;89.51;96661.27;108435;1280;124869;-87
2024/04/05 07:34:31;;;;;;;;;;;;;;;11.66;89.43;96662.48;108545;1275;25644;-87
2024/04/05 07:36:57;;;;;;;;;;;;;;;11.73;89.44;96660.94;108477;1275;124825;-87
2024/04/05 07:39:24;;;;;;;;;;;;;;;11.78;88.39;96659.48;108604;1274;22513;-87
2024/04/05 07:41:50;;;;;;;;;;;;;;;11.82;87.91;96661.44;108553;1280;22521;-86
2024/04/05 07:44:19;;;;;;;;;;;;;;;11.90;88.16;96663.29;108588;1276;124660;-86
2024/04/05 07:46:45;;;;;;;;;;;;;;;12.02;87.96;96664.75;108573;1280;22503;-88
2024/04/05 07:49:12;;;;;;;;;;;;;;;12.12;86.53;96657.77;108477;1280;124814;-87
2024/04/05 07:51:38;;;;;;;;;;;;;;;12.17;86.02;96665.23;108686;1275;22512;-88
2024/04/05 07:54:05;;;;;;;;;;;;;;;12.20;86.18;96663.63;108435;1271;124991;-87
2024/04/05 07:56:31;;;;;;;;;;;;;;;12.25;85.27;96668.05;108728;1279;22533;-87
2024/04/05 07:58:57;;;;;;;;;;;;;;;12.35;86.17;96667.27;108585;1278;22529;-88
2024/04/05 08:01:24;;;;;;;;;;;;;;;12.40;84.83;96675.17;108485;1278;125057;-87
2024/04/05 08:03:51;;;;;;;;;;;;;;;12.35;84.66;96677.23;108667;1280;22506;-87
2024/04/05 08:06:18;;;;;;;;;;;;;;;12.32;83.96;96674.00;108401;1279;125121;-88
2024/04/05 08:08:45;;;;;;;;;;;;;;;12.36;84.29;96675.09;108610;1275;22519;-87
2024/04/05 08:11:11;;;;;;;;;;;;;;;12.45;84.42;96675.57;108639;1275;22908;-88
2024/04/05 08:13:38;;;;;;;;;;;;;;;12.46;83.32;96672.37;108528;1277;124970;-87
2024/04/05 08:16:05;;;;;;;;;;;;;;;12.41;82.50;96676.19;108649;1273;22534;-86
2024/04/05 08:18:31;;;;;;;;;;;;;;;12.35;82.96;96679.80;108464;1276;124989;-87
2024/04/05 08:20:57;;;;;;;;;;;;;;;12.34;82.74;96680.19;108688;1274;25202;-87
2024/04/05 08:23:24;;;;;;;;;;;;;;;12.38;83.90;96683.89;108584;1275;26434;-88
2024/04/05 08:25:50;;;;;;;;;;;;;;;12.49;83.87;96683.60;108451;1280;124798;-87
2024/04/05 08:28:18;;;;;;;;;;;;;;;12.59;82.85;96683.17;108695;1278;22495;-87
2024/04/05 08:30:44;;;;;;;;;;;;;;;12.68;83.43;96686.73;108528;1280;124722;-87
2024/04/05 08:33:10;;;;;;;;;;;;;;;12.77;83.38;96687.34;108592;1275;22507;-87
2024/04/05 08:35:37;;;;;;;;;;;;;;;12.85;82.39;96685.95;108630;1280;22559;-87
2024/04/05 08:38:03;;;;;;;;;;;;;;;12.95;83.17;96688.25;108635;1280;124827;-87
2024/04/05 08:40:30;;;;;;;;;;;;;;;13.06;82.69;96688.38;108745;1272;22517;-88
2024/04/05 08:42:58;;;;;;;;;;;;;;;13.13;82.00;96687.85;108674;1280;124844;-87
2024/04/05 08:45:26;;;;;;;;;;;;;;;13.22;82.80;96689.94;108761;1272;22524;-86
2024/04/05 08:47:52;;;;;;;;;;;;;;;13.33;82.65;96693.48;108803;1276;22502;-87
2024/04/05 08:50:19;;;;;;;;;;;;;;;13.36;81.11;96693.92;108653;1280;125137;-87
2024/04/05 08:52:46;;;;;;;;;;;;;;;13.32;80.54;96696.89;108721;1276;23316;-87
2024/04/05 08:55:13;;;;;;;;;;;;;;;13.25;78.83;96701.19;108718;1280;124778;-87
2024/04/05 08:57:39;;;;;;;;;;;;;;;13.14;79.56;96701.79;108689;1280;22547;-87
2024/04/05 09:00:06;;;;;;;;;;;;;;;13.11;80.59;96699.05;108590;1278;124877;-88
2024/04/05 09:02:35;;;;;;;;;;;;;;;13.12;80.06;96695.80;108796;1269;24364;-88
2024/04/05 09:05:03;;;;;;;;;;;;;;;13.19;80.45;96691.77;108736;1272;22565;-89
2024/04/05 09:07:30;;;;;;;;;;;;;;;13.29;79.59;96691.48;108570;1277;124735;-88
2024/04/05 09:09:56;;;;;;;;;;;;;;;13.35;80.79;96690.73;108820;1272;22573;-87
2024/04/05 09:12:25;;;;;;;;;;;;;;;13.41;80.22;96688.13;108589;1269;124975;-88
2024/04/05 09:14:58;;;;;;;;;;;;;;;13.45;79.62;96692.59;108683;1278;22525;-87
2024/04/05 09:17:25;;;;;;;;;;;;;;;13.52;80.43;96684.94;108691;1272;22521;-87
2024/04/05 09:20:16;;;;;;;;;;;;;;;13.63;81.07;96682.46;108513;1280;124943;-87
2024/04/05 09:22:44;;;;;;;;;;;;;;;13.77;80.34;96686.30;108677;1280;23195;-88
2024/04/05 09:25:10;;;;;;;;;;;;;;;13.86;80.18;96687.08;108498;1271;124978;-87
2024/04/05 09:27:36;;;;;;;;;;;;;;;13.89;78.83;96686.23;108644;1280;22528;-88
2024/04/05 09:30:03;;;;;;;;;;;;;;;13.87;78.30;96687.64;108628;1276;124983;-87
2024/04/05 09:32:29;;;;;;;;;;;;;;;13.87;77.80;96690.70;108716;1277;22503;-88
2024/04/05 09:34:57;;;;;;;;;;;;;;;13.86;77.94;96694.06;108626;1280;22504;-88
2024/04/05 09:37:26;;;;;;;;;;;;;;;13.89;77.74;96691.54;108702;1280;124789;-88
2024/04/05 09:39:53;;;;;;;;;;;;;;;13.92;77.70;96690.30;108687;1272;22540;-88
2024/04/05 09:42:22;;;;;;;;;;;;;;;13.93;78.40;96689.90;108675;1280;125004;-88
2024/04/05 09:44:50;;;;;;;;;;;;;;;13.96;78.35;96692.36;108784;1280;22534;-87
2024/04/05 09:47:19;;;;;;;;;;;;;;;14.01;78.90;96693.92;108595;1280;22533;-88
2024/04/05 09:49:46;;;;;;;;;;;;;;;14.05;78.79;96691.29;109110;1280;124685;-87
2024/04/05 09:52:13;;;;;;;;;;;;;;;14.06;78.78;96692.13;108549;1276;22511;-88
2024/04/05 09:54:40;;;;;;;;;;;;;;;14.02;77.79;96689.19;108634;1280;125297;-87
2024/04/05 09:57:07;;;;;;;;;;;;;;;13.94;77.98;96691.67;108782;1280;23091;-88
2024/04/05 09:59:33;;;;;;;;;;;;;;;13.91;78.30;96694.45;108764;1280;22508;-87
2024/04/05 10:02:00;;;;;;;;;;;;;;;13.97;79.12;96694.54;108738;1277;125837;-88
2024/04/05 10:04:26;;;;;;;;;;;;;;;14.08;78.92;96696.64;108628;1280;22517;-87
2024/04/05 10:06:53;;;;;;;;;;;;;;;14.18;79.28;96697.55;108732;1280;124702;-88
2024/04/05 10:09:21;;;;;;;;;;;;;;;14.37;79.29;96696.92;108691;1277;22890;-88
2024/04/05 10:11:51;;;;;;;;;;;;;;;14.52;79.13;96697.79;109230;1271;22515;-88
2024/04/05 10:14:24;;;;;;;;;;;;;;;14.59;76.80;96698.89;108573;1272;124571;-87
2024/04/05 10:16:51;;;;;;;;;;;;;;;14.59;77.38;96695.90;108608;1278;22539;-88
2024/04/05 10:19:18;;;;;;;;;;;;;;;14.68;77.65;96697.45;108479;1279;124920;-88
2024/04/05 10:21:45;;;;;;;;;;;;;;;14.75;76.44;96692.67;108458;1280;363243;-87
2024/04/05 10:24:12;;;;;;;;;;;;;;;14.77;75.74;96685.06;108465;1279;125041;-87
2024/04/05 10:26:48;;;;;;;;;;;;;;;14.84;77.86;96684.15;108727;1280;22549;-87
2024/04/05 10:29:14;;;;;;;;;;;;;;;15.02;76.97;96687.86;108801;1280;22540;-88
2024/04/05 10:31:41;;;;;;;;;;;;;;;15.19;75.04;96688.48;108534;1273;125114;-87
2024/04/05 10:34:08;;;;;;;;;;;;;;;15.32;74.34;96690.05;108621;1275;22500;-88
2024/04/05 10:36:37;;;;;;;;;;;;;;;15.45;75.39;96689.29;108505;1276;124973;-88
2024/04/05 10:39:19;;;;;;;;;;;;;;;15.63;75.54;96694.68;108677;1275;22519;-88
2024/04/05 10:41:46;;;;;;;;;;;;;;;15.75;75.02;96703.95;108748;1276;22507;-88
2024/04/05 10:44:13;;;;;;;;;;;;;;;15.77;73.71;96704.27;108616;1271;124768;-87
2024/04/05 10:46:41;;;;;;;;;;;;;;;15.74;72.63;96705.85;108542;1280;22507;-88
2024/04/05 10:49:07;;;;;;;;;;;;;;;15.69;71.40;96701.73;108587;1280;126259;-88
2024/04/05 10:51:34;;;;;;;;;;;;;;;15.65;71.49;96704.52;108629;1280;22640;-88
2024/04/05 10:54:07;;;;;;;;;;;;;;;15.69;72.66;96704.07;108577;1279;124259;-88
2024/04/05 10:56:36;;;;;;;;;;;;;;;15.75;71.64;96707.02;108705;1278;22528;-87
2024/04/05 10:59:05;;;;;;;;;;;;;;;15.69;69.76;96706.48;108800;1280;22522;-87
2024/04/05 11:01:31;;;;;;;;;;;;;;;15.49;69.67;96709.52;108665;1274;124325;-87
2024/04/05 11:03:57;;;;;;;;;;;;;;;15.37;70.99;96709.41;108646;1280;25319;-88
2024/04/05 11:06:24;;;;;;;;;;;;;;;15.33;71.53;96707.58;108640;1280;124304;-90
2024/04/05 11:08:51;;;;;;;;;;;;;;;15.27;70.93;96704.95;108750;1272;22503;-88
2024/04/05 11:11:19;;;;;;;;;;;;;;;15.23;72.24;96703.79;108729;1275;24837;-89
2024/04/05 11:13:45;;;;;;;;;;;;;;;15.25;71.81;96701.77;108554;1280;124251;-88
2024/04/05 11:16:12;;;;;;;;;;;;;;;15.22;70.89;96704.11;108810;1280;23826;-89
2024/04/05 11:18:38;;;;;;;;;;;;;;;15.26;71.97;96704.06;108776;1269;124238;-89
2024/04/05 11:21:05;;;;;;;;;;;;;;;15.35;71.88;96705.39;108815;1280;23438;-88
2024/04/05 11:23:32;;;;;;;;;;;;;;;15.44;72.93;96702.64;108722;1275;22535;-89
2024/04/05 11:26:00;;;;;;;;;;;;;;;15.53;72.64;96703.30;108728;1280;124374;-89
2024/04/05 11:28:26;;;;;;;;;;;;;;;15.55;72.22;96699.34;108864;1280;22539;-90
2024/04/05 11:30:53;;;;;;;;;;;;;;;15.59;73.17;96703.17;108748;1277;124759;-89
2024/04/05 11:33:20;;;;;;;;;;;;;;;15.73;73.08;96706.35;108633;1275;22515;-88
2024/04/05 11:35:46;;;;;;;;;;;;;;;15.89;71.97;96711.34;108646;1277;22512;-88
2024/04/05 11:38:13;;;;;;;;;;;;;;;16.01;71.85;96710.45;108651;1275;124755;-89
2024/04/05 11:40:39;;;;;;;;;;;;;;;15.98;69.68;96715.59;108627;1280;22511;-89
2024/04/05 11:43:08;;;;;;;;;;;;;;;15.93;69.59;96723.62;108533;1280;124305;-89
2024/04/05 11:45:35;;;;;;;;;;;;;;;15.91;70.78;96721.89;108623;1277;22537;-89
2024/04/05 11:48:02;;;;;;;;;;;;;;;15.91;69.37;96723.66;108520;1280;124307;-88
2024/04/05 11:50:33;;;;;;;;;;;;;;;15.87;68.60;96722.55;108665;1280;22507;-89
2024/04/05 11:53:00;;;;;;;;;;;;;;;15.78;68.57;96726.80;108753;1280;22562;-89
2024/04/05 11:55:26;;;;;;;;;;;;;;;15.76;69.59;96723.55;108545;1280;124224;-88
2024/04/05 11:57:53;;;;;;;;;;;;;;;15.76;69.35;96723.63;108663;1278;25269;-88
2024/04/05 12:00:19;;;;;;;;;;;;;;;15.73;68.70;96727.18;108688;1275;126445;-89
2024/04/05 12:02:46;;;;;;;;;;;;;;;15.73;68.87;96728.98;108538;1280;25319;-89
2024/04/05 12:05:12;;;;;;;;;;;;;;;15.73;68.05;96725.41;108639;1278;22549;-88
2024/04/05 12:07:39;;;;;;;;;;;;;;;15.78;68.09;96726.73;108698;1262;124129;-89
2024/04/05 12:10:06;;;;;;;;;;;;;;;15.87;67.71;96724.52;108787;1280;22503;-89
2024/04/05 12:12:33;;;;;;;;;;;;;;;15.96;67.45;96725.67;108584;1280;124253;-89
2024/04/05 12:14:59;;;;;;;;;;;;;;;15.99;67.25;96721.23;108654;1279;22518;-89
2024/04/05 12:17:26;;;;;;;;;;;;;;;16.00;66.61;96718.84;108781;1279;22541;-90
2024/04/05 12:19:53;;;;;;;;;;;;;;;15.94;66.00;96723.70;108601;1280;125017;-89
2024/04/05 12:22:19;;;;;;;;;;;;;;;15.87;67.05;96719.73;108675;1280;22547;-88
2024/04/05 12:24:46;;;;;;;;;;;;;;;15.91;67.15;96718.34;108522;1280;124535;-89
2024/04/05 12:27:13;;;;;;;;;;;;;;;16.01;67.24;96711.59;108641;1280;25999;-89
2024/04/05 12:29:41;;;;;;;;;;;;;;;16.12;67.56;96710.29;108606;1276;22543;-90
2024/04/05 12:32:09;;;;;;;;;;;;;;;16.23;66.45;96708.21;108683;1280;123984;-89
2024/04/05 12:34:35;;;;;;;;;;;;;;;16.25;66.35;96706.75;108631;1280;22553;-89